Karina G — V2CH2 — position and weather

sailwx.info

Track history (hours):
 
Tides and Currents Weather Stations Pressure Air Temp Water Temp Dewpoint Dewpoint Depression Visibility Wind Speed Wind Dir Waves Ship Positions

Karina G

Last reported at 2018-Jan-23 13:29 UTC. Time now 2018-Jan-23 13:55 UTC.
Position N 53°20' W 002°45'.

Length 88 m; draft 5.3 m.

Type: Cargo ship. MMSI: 305555000.

Date/timePositionNaut miles runAvg speedWind from/ knotsBaromVisibWave heightAir tempDewpointWater temp
2018-Jan-23 13:29N 53°20' W 002°45'0 0.0
2018-Jan-23 12:56N 53°20' W 002°45'0 0.1
2018-Jan-23 12:29N 53°20' W 002°45'0 0.1
2018-Jan-23 11:59N 53°20' W 002°45'0 0.0
2018-Jan-23 11:29N 53°20' W 002°45'0 0.0
2018-Jan-23 10:59N 53°20' W 002°45'0 0.0
2018-Jan-23 10:26N 53°20' W 002°45'0 0.0
2018-Jan-23 09:56N 53°20' W 002°45'0 0.0
2018-Jan-23 09:26N 53°20' W 002°45'0 0.0
2018-Jan-23 08:56N 53°20' W 002°45'0 0.0
2018-Jan-23 08:29N 53°20' W 002°45'0 0.0
2018-Jan-23 07:56N 53°20' W 002°45'0 0.0
2018-Jan-23 07:29N 53°20' W 002°45'0 0.0
2018-Jan-23 06:59N 53°20' W 002°45'0 0.0
2018-Jan-23 06:29N 53°20' W 002°45'0 0.0
2018-Jan-23 05:59N 53°20' W 002°45'0 0.0
2018-Jan-23 05:29N 53°20' W 002°45'0 0.0
2018-Jan-23 04:56N 53°20' W 002°45'0 0.0
2018-Jan-23 04:26N 53°20' W 002°45'0 0.0
2018-Jan-23 03:59N 53°20' W 002°45'0 0.0
2018-Jan-23 03:29N 53°20' W 002°45'0 0.0
2018-Jan-23 02:59N 53°20' W 002°45'0 0.0
2018-Jan-23 02:29N 53°20' W 002°45'0 0.0
2018-Jan-23 01:56N 53°20' W 002°45'0 0.0
2018-Jan-23 01:26N 53°20' W 002°45'0 0.0
2018-Jan-23 00:56N 53°20' W 002°45'0 0.0
2018-Jan-23 00:29N 53°20' W 002°45'0 0.0
2018-Jan-22 23:56N 53°20' W 002°45'0 0.0
2018-Jan-22 23:26N 53°20' W 002°45'0 0.0
2018-Jan-22 22:59N 53°20' W 002°45'0 0.0
2018-Jan-22 22:14N 53°20' W 002°45'0 0.0
2018-Jan-22 21:53N 53°20' W 002°45'0 0.0
2018-Jan-22 21:29N 53°20' W 002°45'0 0.0
2018-Jan-22 20:53N 53°20' W 002°45'0 0.0
2018-Jan-22 20:26N 53°20' W 002°45'0 0.0
2018-Jan-22 19:50N 53°20' W 002°45'0 0.0
2018-Jan-22 19:29N 53°20' W 002°45'0 0.0
2018-Jan-22 18:59N 53°20' W 002°45'0 0.0
2018-Jan-22 18:23N 53°20' W 002°45'0 0.0
2018-Jan-22 18:01N 53°20' W 002°45'0 0.9
2018-Jan-22 17:30N 53°20' W 002°46'3 5.4
2018-Jan-22 17:01N 53°18' W 002°47'3 5.8
2018-Jan-22 16:30N 53°17' W 002°52'3 5.8
2018-Jan-22 16:00N 53°19' W 002°56'1 1.4
2018-Jan-22 15:30N 53°19' W 002°57'2 3.3
2018-Jan-22 15:00N 53°21' W 002°58'1 2.6
2018-Jan-22 14:30N 53°22' W 002°59'4 7.8
2018-Jan-22 14:00N 53°26' W 003°01'5 9.9
2018-Jan-22 13:30N 53°30' W 003°06'4 7.7
2018-Jan-22 13:01N 53°31' W 003°12'510.0
2018-Jan-22 12:30N 53°31' W 003°20'2 3.9
2018-Jan-22 12:00N 53°30' W 003°23'2 3.5
2018-Jan-22 11:30N 53°28' W 003°22'0 0.1
2018-Jan-22 10:59N 53°28' W 003°22'0 0.0
2018-Jan-22 10:26N 53°28' W 003°22'0 0.0
2018-Jan-22 09:59N 53°28' W 003°22'0 0.0
2018-Jan-22 09:29N 53°28' W 003°22'0 0.0
2018-Jan-22 08:50N 53°28' W 003°22'0 0.0
2018-Jan-22 08:26N 53°28' W 003°22'0 0.0
2018-Jan-22 07:59N 53°28' W 003°22'0 0.2
2018-Jan-22 07:29N 53°28' W 003°22'0 0.1
2018-Jan-22 06:59N 53°28' W 003°22'0 0.0
2018-Jan-22 06:17N 53°28' W 003°22'0 0.2
2018-Jan-22 05:59N 53°28' W 003°22'1 2.4
2018-Jan-22 05:30N 53°29' W 003°24'4 8.2
2018-Jan-22 05:00N 53°30' W 003°30'3 5.5
2018-Jan-22 04:30N 53°31' W 003°35'3 5.3
2018-Jan-22 04:00N 53°31' W 003°39'3 5.5
2018-Jan-22 03:30N 53°31' W 003°44'3 5.8
2018-Jan-22 03:00N 53°31' W 003°49'3 6.2
2018-Jan-22 02:30N 53°31' W 003°54'3 6.5
2018-Jan-22 02:00N 53°31' W 003°59'3 6.8
2018-Jan-22 01:30N 53°30' W 004°05'167 8.3
2018-Jan-21 05:23N 50°57' W 005°52'4 9.5
2018-Jan-21 04:58N 50°53' W 005°52'5 9.5
2018-Jan-21 04:29N 50°48' W 005°52'5 9.5
2018-Jan-21 04:00N 50°44' W 005°53'5 9.5
2018-Jan-21 03:30N 50°39' W 005°53'5 9.3
2018-Jan-21 03:00N 50°34' W 005°53'5 9.1
2018-Jan-21 02:30N 50°30' W 005°53'4 8.9
2018-Jan-21 02:00N 50°25' W 005°53'4 8.7
2018-Jan-21 01:30N 50°21' W 005°54'4 8.4
2018-Jan-21 01:00N 50°17' W 005°53'4 8.3
2018-Jan-21 00:30N 50°13' W 005°53'4 7.9
2018-Jan-21 00:00N 50°09' W 005°53'4 7.7
2018-Jan-20 23:30N 50°05' W 005°53'5 7.4
2018-Jan-20 22:52N 50°00' W 005°52'5 6.8
2018-Jan-20 22:07N 49°58' W 005°44'2 6.7
2018-Jan-20 21:50N 49°58' W 005°41'3 6.7
2018-Jan-20 21:26N 49°58' W 005°37'4 6.6
2018-Jan-20 20:50N 49°57' W 005°31'3 6.3
2018-Jan-20 20:25N 49°57' W 005°27'4 5.8
2018-Jan-20 19:47N 49°56' W 005°22'6 5.0
2018-Jan-20 18:40N 49°56' W 005°13'1 4.3
2018-Jan-20 18:28N 49°56' W 005°12'3 5.4
2018-Jan-20 17:59N 49°56' W 005°08'3 6.1
2018-Jan-20 17:30N 49°57' W 005°03'3 5.9
2018-Jan-20 16:59N 49°57' W 004°59'3 6.0
2018-Jan-20 16:30N 49°58' W 004°54'3 5.8
2018-Jan-20 16:00N 49°59' W 004°50'3 5.8
2018-Jan-20 15:30N 49°60' W 004°45'3 6.2
2018-Jan-20 14:59N 50°01' W 004°41'3 6.3
2018-Jan-20 14:30N 50°01' W 004°36'4 7.1
2018-Jan-20 14:00N 50°02' W 004°31'4 7.2
2018-Jan-20 13:30N 50°03' W 004°25'4 7.6
2018-Jan-20 13:00N 50°04' W 004°20'4 7.6
2018-Jan-20 12:30N 50°05' W 004°14'4 7.4
2018-Jan-20 12:00N 50°05' W 004°08'4 7.3
2018-Jan-20 11:30N 50°06' W 004°02'3 6.7
2018-Jan-20 11:00N 50°07' W 003°57'3 6.3
2018-Jan-20 10:30N 50°07' W 003°52'3 6.1
2018-Jan-20 10:00N 50°07' W 003°48'3 6.0
2018-Jan-20 09:30N 50°08' W 003°43'3 5.8
2018-Jan-20 09:00N 50°08' W 003°39'3 6.3
2018-Jan-20 08:31N 50°08' W 003°34'3 6.6
2018-Jan-20 08:01N 50°09' W 003°29'3 6.8
2018-Jan-20 07:30N 50°09' W 003°23'4 7.2
2018-Jan-20 07:01N 50°09' W 003°18'4 7.8
2018-Jan-20 06:31N 50°10' W 003°12'4 8.4
2018-Jan-20 06:00N 50°11' W 003°05'4 9.0
2018-Jan-20 05:31N 50°12' W 002°58'5 9.5
2018-Jan-20 05:01N 50°12' W 002°51'610.1
2018-Jan-20 04:24N 50°14' W 002°42'810.7
2018-Jan-20 03:39N 50°15' W 002°29'211.1
2018-Jan-20 03:29N 50°15' W 002°27'44 7.9
2018-Jan-19 21:54N 50°24' W 001°19'4 4.1
2018-Jan-19 20:59N 50°24' W 001°13'3 4.3
2018-Jan-19 20:15N 50°25' W 001°08'2 4.5
2018-Jan-19 19:52N 50°26' W 001°06'2 5.1
2018-Jan-19 19:28N 50°26' W 001°02'3 5.8
2018-Jan-19 18:59N 50°26' W 000°58'3 6.7
2018-Jan-19 18:30N 50°27' W 000°53'10 8.5
2018-Jan-19 17:19N 50°28' W 000°37'3 8.8
2018-Jan-19 16:58N 50°29' W 000°33'4 9.2
2018-Jan-19 16:29N 50°30' W 000°26'5 9.4
2018-Jan-19 16:00N 50°31' W 000°19'5 9.4
2018-Jan-19 15:29N 50°31' W 000°11'4 9.2
2018-Jan-19 15:00N 50°32' W 000°05'5 8.9
2018-Jan-19 14:30N 50°33' E 000°02'4 8.9
2018-Jan-19 14:00N 50°35' E 000°09'4 8.6
2018-Jan-19 13:30N 50°36' E 000°16'4 8.2
2018-Jan-19 13:00N 50°37' E 000°22'4 8.0
2018-Jan-19 12:30N 50°38' E 000°28'4 7.4
2018-Jan-19 12:00N 50°39' E 000°34'4 7.5
2018-Jan-19 11:30N 50°41' E 000°38'4 7.4
2018-Jan-19 11:00N 50°43' E 000°43'4 7.3
2018-Jan-19 10:30N 50°45' E 000°48'4 7.8
2018-Jan-19 10:00N 50°47' E 000°53'4 8.5
2018-Jan-19 09:30N 50°50' E 000°58'5 9.4
2018-Jan-19 08:58N 50°53' E 001°05'510.3
2018-Jan-19 08:30N 50°56' E 001°11'611.2
2018-Jan-19 07:59N 50°60' E 001°17'511.5
2018-Jan-19 07:30N 51°03' E 001°24'611.2
2018-Jan-19 07:00N 51°07' E 001°30'611.3
2018-Jan-19 06:30N 51°12' E 001°35'510.4
2018-Jan-19 06:00N 51°17' E 001°36'510.4
2018-Jan-19 05:30N 51°22' E 001°33'611.1
2018-Jan-19 05:00N 51°25' E 001°25'1 1.6
2018-Jan-19 04:30N 51°25' E 001°24'0 0.1
2018-Jan-19 04:00N 51°25' E 001°24'0 0.0
2018-Jan-19 03:30N 51°25' E 001°24'0 0.0
2018-Jan-19 03:00N 51°25' E 001°24'0 0.0
2018-Jan-19 02:30N 51°25' E 001°24'0 0.0
2018-Jan-19 02:00N 51°25' E 001°24'0 0.2
2018-Jan-19 01:30N 51°25' E 001°23'0 0.1
2018-Jan-19 01:00N 51°25' E 001°23'0 0.0
2018-Jan-19 00:30N 51°25' E 001°23'0 0.3
2018-Jan-19 00:00N 51°25' E 001°23'0 0.0
2018-Jan-18 23:31N 51°25' E 001°23'0 0.1
2018-Jan-18 23:01N 51°25' E 001°23'0 0.1
2018-Jan-18 22:30N 51°25' E 001°23'0 0.1
2018-Jan-18 22:00N 51°25' E 001°23'0 0.0
2018-Jan-18 21:30N 51°25' E 001°24'0 0.0
2018-Jan-18 21:00N 51°25' E 001°24'0 0.0
2018-Jan-18 20:30N 51°25' E 001°24'0 0.1
2018-Jan-18 20:00N 51°25' E 001°24'0 0.0
2018-Jan-18 19:31N 51°25' E 001°24'0 0.0
2018-Jan-18 19:00N 51°25' E 001°24'0 0.0
2018-Jan-18 18:30N 51°25' E 001°24'0 0.0
2018-Jan-18 18:00N 51°25' E 001°24'0 0.0
2018-Jan-18 17:30N 51°25' E 001°24'0 0.0
2018-Jan-18 17:01N 51°25' E 001°24'0 0.0
2018-Jan-18 16:30N 51°25' E 001°24'0 0.0
2018-Jan-18 16:00N 51°25' E 001°24'0 0.0
2018-Jan-18 15:30N 51°25' E 001°24'0 0.0
2018-Jan-18 15:00N 51°25' E 001°24'0 0.0
2018-Jan-18 14:30N 51°25' E 001°24'0 0.0
2018-Jan-18 14:00N 51°25' E 001°24'0 0.0
2018-Jan-18 13:31N 51°25' E 001°24'0 0.3
2018-Jan-18 13:00N 51°25' E 001°23'0 0.1
2018-Jan-18 12:30N 51°25' E 001°23'0 0.0
2018-Jan-18 12:00N 51°25' E 001°23'0 0.0
2018-Jan-18 11:30N 51°25' E 001°23'0 0.0
2018-Jan-18 11:00N 51°25' E 001°23'0 0.0
2018-Jan-18 10:30N 51°25' E 001°23'0 0.0
2018-Jan-18 10:00N 51°25' E 001°23'0 0.2
2018-Jan-18 09:30N 51°25' E 001°23'0 0.2
2018-Jan-18 09:00N 51°25' E 001°24'0 0.2
2018-Jan-18 08:30N 51°25' E 001°24'0 0.1
2018-Jan-18 08:00N 51°25' E 001°24'0 0.0
2018-Jan-18 07:30N 51°25' E 001°24'0 0.0
2018-Jan-18 07:00N 51°25' E 001°24'0 0.5
2018-Jan-18 06:30N 51°25' E 001°24'0 0.7
2018-Jan-18 06:00N 51°25' E 001°25'0 0.7
2018-Jan-18 05:30N 51°25' E 001°24'0 0.0
2018-Jan-18 05:00N 51°25' E 001°24'0 0.0
2018-Jan-18 04:29N 51°25' E 001°24'0 0.0
2018-Jan-18 04:00N 51°25' E 001°24'0 0.0
2018-Jan-18 03:30N 51°25' E 001°24'0 0.0
2018-Jan-18 03:00N 51°25' E 001°24'0 0.0
2018-Jan-18 02:30N 51°25' E 001°24'0 0.1
2018-Jan-18 02:00N 51°25' E 001°24'0 0.1
2018-Jan-18 01:30N 51°25' E 001°24'0 0.2
2018-Jan-18 01:00N 51°25' E 001°24'0 0.1
2018-Jan-18 00:00N 51°25' E 001°24'0 0.0
2018-Jan-17 23:57N 51°25' E 001°24'  
Track history (hours):
 
Tides and Currents Weather Stations Pressure Air Temp Water Temp Dewpoint Dewpoint Depression Visibility Wind Speed Wind Dir Waves Ship Positions

Karina G

Last reported at 2018-Jan-23 13:29 UTC. Time now 2018-Jan-23 13:55 UTC.
Position N 53°20' W 002°45'.

Length 88 m; draft 5.3 m.

Type: Cargo ship. MMSI: 305555000.

Date/timePositionNaut miles runAvg speedWind from/ knotsBaromVisibWave heightAir tempDewpointWater temp
2018-Jan-23 13:29N 53°20' W 002°45'0 0.0
2018-Jan-23 12:56N 53°20' W 002°45'0 0.1
2018-Jan-23 12:29N 53°20' W 002°45'0 0.1
2018-Jan-23 11:59N 53°20' W 002°45'0 0.0
2018-Jan-23 11:29N 53°20' W 002°45'0 0.0
2018-Jan-23 10:59N 53°20' W 002°45'0 0.0
2018-Jan-23 10:26N 53°20' W 002°45'0 0.0
2018-Jan-23 09:56N 53°20' W 002°45'0 0.0
2018-Jan-23 09:26N 53°20' W 002°45'0 0.0
2018-Jan-23 08:56N 53°20' W 002°45'0 0.0
2018-Jan-23 08:29N 53°20' W 002°45'0 0.0
2018-Jan-23 07:56N 53°20' W 002°45'0 0.0
2018-Jan-23 07:29N 53°20' W 002°45'0 0.0
2018-Jan-23 06:59N 53°20' W 002°45'0 0.0
2018-Jan-23 06:29N 53°20' W 002°45'0 0.0
2018-Jan-23 05:59N 53°20' W 002°45'0 0.0
2018-Jan-23 05:29N 53°20' W 002°45'0 0.0
2018-Jan-23 04:56N 53°20' W 002°45'0 0.0
2018-Jan-23 04:26N 53°20' W 002°45'0 0.0
2018-Jan-23 03:59N 53°20' W 002°45'0 0.0
2018-Jan-23 03:29N 53°20' W 002°45'0 0.0
2018-Jan-23 02:59N 53°20' W 002°45'0 0.0
2018-Jan-23 02:29N 53°20' W 002°45'0 0.0
2018-Jan-23 01:56N 53°20' W 002°45'0 0.0
2018-Jan-23 01:26N 53°20' W 002°45'0 0.0
2018-Jan-23 00:56N 53°20' W 002°45'0 0.0
2018-Jan-23 00:29N 53°20' W 002°45'0 0.0
2018-Jan-22 23:56N 53°20' W 002°45'0 0.0
2018-Jan-22 23:26N 53°20' W 002°45'0 0.0
2018-Jan-22 22:59N 53°20' W 002°45'0 0.0
2018-Jan-22 22:14N 53°20' W 002°45'0 0.0
2018-Jan-22 21:53N 53°20' W 002°45'0 0.0
2018-Jan-22 21:29N 53°20' W 002°45'0 0.0
2018-Jan-22 20:53N 53°20' W 002°45'0 0.0
2018-Jan-22 20:26N 53°20' W 002°45'0 0.0
2018-Jan-22 19:50N 53°20' W 002°45'0 0.0
2018-Jan-22 19:29N 53°20' W 002°45'0 0.0
2018-Jan-22 18:59N 53°20' W 002°45'0 0.0
2018-Jan-22 18:23N 53°20' W 002°45'0 0.0
2018-Jan-22 18:01N 53°20' W 002°45'0 0.9
2018-Jan-22 17:30N 53°20' W 002°46'3 5.4
2018-Jan-22 17:01N 53°18' W 002°47'3 5.8
2018-Jan-22 16:30N 53°17' W 002°52'3 5.8
2018-Jan-22 16:00N 53°19' W 002°56'1 1.4
2018-Jan-22 15:30N 53°19' W 002°57'2 3.3
2018-Jan-22 15:00N 53°21' W 002°58'1 2.6
2018-Jan-22 14:30N 53°22' W 002°59'4 7.8
2018-Jan-22 14:00N 53°26' W 003°01'5 9.9
2018-Jan-22 13:30N 53°30' W 003°06'4 7.7
2018-Jan-22 13:01N 53°31' W 003°12'510.0
2018-Jan-22 12:30N 53°31' W 003°20'2 3.9
2018-Jan-22 12:00N 53°30' W 003°23'2 3.5
2018-Jan-22 11:30N 53°28' W 003°22'0 0.1
2018-Jan-22 10:59N 53°28' W 003°22'0 0.0
2018-Jan-22 10:26N 53°28' W 003°22'0 0.0
2018-Jan-22 09:59N 53°28' W 003°22'0 0.0
2018-Jan-22 09:29N 53°28' W 003°22'0 0.0
2018-Jan-22 08:50N 53°28' W 003°22'0 0.0
2018-Jan-22 08:26N 53°28' W 003°22'0 0.0
2018-Jan-22 07:59N 53°28' W 003°22'0 0.2
2018-Jan-22 07:29N 53°28' W 003°22'0 0.1
2018-Jan-22 06:59N 53°28' W 003°22'0 0.0
2018-Jan-22 06:17N 53°28' W 003°22'0 0.2
2018-Jan-22 05:59N 53°28' W 003°22'1 2.4
2018-Jan-22 05:30N 53°29' W 003°24'4 8.2
2018-Jan-22 05:00N 53°30' W 003°30'3 5.5
2018-Jan-22 04:30N 53°31' W 003°35'3 5.3
2018-Jan-22 04:00N 53°31' W 003°39'3 5.5
2018-Jan-22 03:30N 53°31' W 003°44'3 5.8
2018-Jan-22 03:00N 53°31' W 003°49'3 6.2
2018-Jan-22 02:30N 53°31' W 003°54'3 6.5
2018-Jan-22 02:00N 53°31' W 003°59'3 6.8
2018-Jan-22 01:30N 53°30' W 004°05'167 8.3
2018-Jan-21 05:23N 50°57' W 005°52'4 9.5
2018-Jan-21 04:58N 50°53' W 005°52'5 9.5
2018-Jan-21 04:29N 50°48' W 005°52'5 9.5
2018-Jan-21 04:00N 50°44' W 005°53'5 9.5
2018-Jan-21 03:30N 50°39' W 005°53'5 9.3
2018-Jan-21 03:00N 50°34' W 005°53'5 9.1
2018-Jan-21 02:30N 50°30' W 005°53'4 8.9
2018-Jan-21 02:00N 50°25' W 005°53'4 8.7
2018-Jan-21 01:30N 50°21' W 005°54'4 8.4
2018-Jan-21 01:00N 50°17' W 005°53'4 8.3
2018-Jan-21 00:30N 50°13' W 005°53'4 7.9
2018-Jan-21 00:00N 50°09' W 005°53'4 7.7
2018-Jan-20 23:30N 50°05' W 005°53'5 7.4
2018-Jan-20 22:52N 50°00' W 005°52'5 6.8
2018-Jan-20 22:07N 49°58' W 005°44'2 6.7
2018-Jan-20 21:50N 49°58' W 005°41'3 6.7
2018-Jan-20 21:26N 49°58' W 005°37'4 6.6
2018-Jan-20 20:50N 49°57' W 005°31'3 6.3
2018-Jan-20 20:25N 49°57' W 005°27'4 5.8
2018-Jan-20 19:47N 49°56' W 005°22'6 5.0
2018-Jan-20 18:40N 49°56' W 005°13'1 4.3
2018-Jan-20 18:28N 49°56' W 005°12'3 5.4
2018-Jan-20 17:59N 49°56' W 005°08'3 6.1
2018-Jan-20 17:30N 49°57' W 005°03'3 5.9
2018-Jan-20 16:59N 49°57' W 004°59'3 6.0
2018-Jan-20 16:30N 49°58' W 004°54'3 5.8
2018-Jan-20 16:00N 49°59' W 004°50'3 5.8
2018-Jan-20 15:30N 49°60' W 004°45'3 6.2
2018-Jan-20 14:59N 50°01' W 004°41'3 6.3
2018-Jan-20 14:30N 50°01' W 004°36'4 7.1
2018-Jan-20 14:00N 50°02' W 004°31'4 7.2
2018-Jan-20 13:30N 50°03' W 004°25'4 7.6
2018-Jan-20 13:00N 50°04' W 004°20'4 7.6
2018-Jan-20 12:30N 50°05' W 004°14'4 7.4
2018-Jan-20 12:00N 50°05' W 004°08'4 7.3
2018-Jan-20 11:30N 50°06' W 004°02'3 6.7
2018-Jan-20 11:00N 50°07' W 003°57'3 6.3
2018-Jan-20 10:30N 50°07' W 003°52'3 6.1
2018-Jan-20 10:00N 50°07' W 003°48'3 6.0
2018-Jan-20 09:30N 50°08' W 003°43'3 5.8
2018-Jan-20 09:00N 50°08' W 003°39'3 6.3
2018-Jan-20 08:31N 50°08' W 003°34'3 6.6
2018-Jan-20 08:01N 50°09' W 003°29'3 6.8
2018-Jan-20 07:30N 50°09' W 003°23'4 7.2
2018-Jan-20 07:01N 50°09' W 003°18'4 7.8
2018-Jan-20 06:31N 50°10' W 003°12'4 8.4
2018-Jan-20 06:00N 50°11' W 003°05'4 9.0
2018-Jan-20 05:31N 50°12' W 002°58'5 9.5
2018-Jan-20 05:01N 50°12' W 002°51'610.1
2018-Jan-20 04:24N 50°14' W 002°42'810.7
2018-Jan-20 03:39N 50°15' W 002°29'211.1
2018-Jan-20 03:29N 50°15' W 002°27'44 7.9
2018-Jan-19 21:54N 50°24' W 001°19'4 4.1
2018-Jan-19 20:59N 50°24' W 001°13'3 4.3
2018-Jan-19 20:15N 50°25' W 001°08'2 4.5
2018-Jan-19 19:52N 50°26' W 001°06'2 5.1
2018-Jan-19 19:28N 50°26' W 001°02'3 5.8
2018-Jan-19 18:59N 50°26' W 000°58'3 6.7
2018-Jan-19 18:30N 50°27' W 000°53'10 8.5
2018-Jan-19 17:19N 50°28' W 000°37'3 8.8
2018-Jan-19 16:58N 50°29' W 000°33'4 9.2
2018-Jan-19 16:29N 50°30' W 000°26'5 9.4
2018-Jan-19 16:00N 50°31' W 000°19'5 9.4
2018-Jan-19 15:29N 50°31' W 000°11'4 9.2
2018-Jan-19 15:00N 50°32' W 000°05'5 8.9
2018-Jan-19 14:30N 50°33' E 000°02'4 8.9
2018-Jan-19 14:00N 50°35' E 000°09'4 8.6
2018-Jan-19 13:30N 50°36' E 000°16'4 8.2
2018-Jan-19 13:00N 50°37' E 000°22'4 8.0
2018-Jan-19 12:30N 50°38' E 000°28'4 7.4
2018-Jan-19 12:00N 50°39' E 000°34'4 7.5
2018-Jan-19 11:30N 50°41' E 000°38'4 7.4
2018-Jan-19 11:00N 50°43' E 000°43'4 7.3
2018-Jan-19 10:30N 50°45' E 000°48'4 7.8
2018-Jan-19 10:00N 50°47' E 000°53'4 8.5
2018-Jan-19 09:30N 50°50' E 000°58'5 9.4
2018-Jan-19 08:58N 50°53' E 001°05'510.3
2018-Jan-19 08:30N 50°56' E 001°11'611.2
2018-Jan-19 07:59N 50°60' E 001°17'511.5
2018-Jan-19 07:30N 51°03' E 001°24'611.2
2018-Jan-19 07:00N 51°07' E 001°30'611.3
2018-Jan-19 06:30N 51°12' E 001°35'510.4
2018-Jan-19 06:00N 51°17' E 001°36'510.4
2018-Jan-19 05:30N 51°22' E 001°33'611.1
2018-Jan-19 05:00N 51°25' E 001°25'1 1.6
2018-Jan-19 04:30N 51°25' E 001°24'0 0.1
2018-Jan-19 04:00N 51°25' E 001°24'0 0.0
2018-Jan-19 03:30N 51°25' E 001°24'0 0.0
2018-Jan-19 03:00N 51°25' E 001°24'0 0.0
2018-Jan-19 02:30N 51°25' E 001°24'0 0.0
2018-Jan-19 02:00N 51°25' E 001°24'0 0.2
2018-Jan-19 01:30N 51°25' E 001°23'0 0.1
2018-Jan-19 01:00N 51°25' E 001°23'0 0.0
2018-Jan-19 00:30N 51°25' E 001°23'0 0.3
2018-Jan-19 00:00N 51°25' E 001°23'0 0.0
2018-Jan-18 23:31N 51°25' E 001°23'0 0.1
2018-Jan-18 23:01N 51°25' E 001°23'0 0.1
2018-Jan-18 22:30N 51°25' E 001°23'0 0.1
2018-Jan-18 22:00N 51°25' E 001°23'0 0.0
2018-Jan-18 21:30N 51°25' E 001°24'0 0.0
2018-Jan-18 21:00N 51°25' E 001°24'0 0.0
2018-Jan-18 20:30N 51°25' E 001°24'0 0.1
2018-Jan-18 20:00N 51°25' E 001°24'0 0.0
2018-Jan-18 19:31N 51°25' E 001°24'0 0.0
2018-Jan-18 19:00N 51°25' E 001°24'0 0.0
2018-Jan-18 18:30N 51°25' E 001°24'0 0.0
2018-Jan-18 18:00N 51°25' E 001°24'0 0.0
2018-Jan-18 17:30N 51°25' E 001°24'0 0.0
2018-Jan-18 17:01N 51°25' E 001°24'0 0.0
2018-Jan-18 16:30N 51°25' E 001°24'0 0.0
2018-Jan-18 16:00N 51°25' E 001°24'0 0.0
2018-Jan-18 15:30N 51°25' E 001°24'0 0.0
2018-Jan-18 15:00N 51°25' E 001°24'0 0.0
2018-Jan-18 14:30N 51°25' E 001°24'0 0.0
2018-Jan-18 14:00N 51°25' E 001°24'0 0.0
2018-Jan-18 13:31N 51°25' E 001°24'0 0.3
2018-Jan-18 13:00N 51°25' E 001°23'0 0.1
2018-Jan-18 12:30N 51°25' E 001°23'0 0.0
2018-Jan-18 12:00N 51°25' E 001°23'0 0.0
2018-Jan-18 11:30N 51°25' E 001°23'0 0.0
2018-Jan-18 11:00N 51°25' E 001°23'0 0.0
2018-Jan-18 10:30N 51°25' E 001°23'0 0.0
2018-Jan-18 10:00N 51°25' E 001°23'0 0.2
2018-Jan-18 09:30N 51°25' E 001°23'0 0.2
2018-Jan-18 09:00N 51°25' E 001°24'0 0.2
2018-Jan-18 08:30N 51°25' E 001°24'0 0.1
2018-Jan-18 08:00N 51°25' E 001°24'0 0.0
2018-Jan-18 07:30N 51°25' E 001°24'0 0.0
2018-Jan-18 07:00N 51°25' E 001°24'0 0.5
2018-Jan-18 06:30N 51°25' E 001°24'0 0.7
2018-Jan-18 06:00N 51°25' E 001°25'0 0.7
2018-Jan-18 05:30N 51°25' E 001°24'0 0.0
2018-Jan-18 05:00N 51°25' E 001°24'0 0.0
2018-Jan-18 04:29N 51°25' E 001°24'0 0.0
2018-Jan-18 04:00N 51°25' E 001°24'0 0.0
2018-Jan-18 03:30N 51°25' E 001°24'0 0.0
2018-Jan-18 03:00N 51°25' E 001°24'0 0.0
2018-Jan-18 02:30N 51°25' E 001°24'0 0.1
2018-Jan-18 02:00N 51°25' E 001°24'0 0.1
2018-Jan-18 01:30N 51°25' E 001°24'0 0.2
2018-Jan-18 01:00N 51°25' E 001°24'0 0.1
2018-Jan-18 00:00N 51°25' E 001°24'0 0.0
2018-Jan-17 23:57N 51°25' E 001°24'  

Dump ship's entire track history